createdAt,value
2019-02-28T00:00:13.316Z,54.00
2019-02-28T00:02:41.484Z,60.80
2019-02-28T00:05:09.922Z,53.97
2019-02-28T00:07:38.249Z,60.53
2019-02-28T00:10:09.106Z,63.85
2019-02-28T00:12:37.252Z,58.30
2019-02-28T00:15:06.971Z,58.37
2019-02-28T00:17:35.152Z,61.37
2019-02-28T00:20:04.349Z,62.60
2019-02-28T00:22:32.604Z,60.53
2019-02-28T00:25:01.126Z,68.47
2019-02-28T00:27:30.575Z,61.30
2019-02-28T00:29:58.865Z,61.13
2019-02-28T00:32:27.279Z,67.80
2019-02-28T00:34:55.624Z,67.53
2019-02-28T00:37:24.703Z,55.63
2019-02-28T00:39:53.589Z,65.13
2019-02-28T00:42:22.006Z,63.77
2019-02-28T00:44:50.148Z,58.30
2019-02-28T00:47:18.315Z,62.63
2019-02-28T00:49:46.452Z,64.33
2019-02-28T00:52:14.591Z,61.20
2019-02-28T00:54:44.350Z,60.57
2019-02-28T00:57:12.548Z,59.93
2019-02-28T00:59:40.691Z,68.63
2019-02-28T01:02:09.264Z,68.97
2019-02-28T01:04:37.404Z,65.47
2019-02-28T01:07:05.547Z,58.00
2019-02-28T01:09:33.711Z,62.00
2019-02-28T01:12:01.926Z,64.33
2019-02-28T01:14:32.400Z,63.33
2019-02-28T01:17:00.124Z,59.87
2019-02-28T01:19:28.276Z,61.50
2019-02-28T01:21:56.421Z,59.23
2019-02-28T01:24:24.773Z,67.10
2019-02-28T01:26:52.918Z,65.47
2019-02-28T01:29:21.060Z,63.33
2019-02-28T01:31:49.236Z,62.03
2019-02-28T01:34:17.440Z,62.83
2019-02-28T01:36:45.959Z,63.00
2019-02-28T01:39:15.396Z,64.60
2019-02-28T01:41:45.152Z,74.80
2019-02-28T01:44:13.491Z,70.33
2019-02-28T01:46:41.660Z,62.00
2019-02-28T01:49:09.799Z,70.93
2019-02-28T01:51:37.935Z,62.43
2019-02-28T01:54:06.112Z,64.63
2019-02-28T01:56:36.716Z,62.83
2019-02-28T01:59:04.034Z,65.40
2019-02-28T02:01:32.206Z,68.50
2019-02-28T02:04:00.361Z,68.83
2019-02-28T02:06:28.496Z,66.13
2019-02-28T02:08:56.838Z,71.70
2019-02-28T02:11:26.697Z,71.30
2019-02-28T02:13:54.773Z,69.47
2019-02-28T02:16:26.773Z,71.67
2019-02-28T02:18:52.729Z,81.63
2019-02-28T02:21:22.076Z,71.13
2019-02-28T02:23:52.993Z,71.40
2019-02-28T02:26:20.058Z,75.27
2019-02-28T02:28:48.203Z,80.20
2019-02-28T02:31:16.379Z,74.13
2019-02-28T02:33:50.893Z,76.97
2019-02-28T02:36:16.360Z,74.90
2019-02-28T02:38:44.425Z,79.70
2019-02-28T02:41:12.570Z,74.23
2019-02-28T02:43:40.702Z,73.07
2019-02-28T02:46:08.965Z,73.00
2019-02-28T02:48:38.472Z,81.47
2019-02-28T02:51:10.645Z,80.43
2019-02-28T02:53:41.414Z,68.57
2019-02-28T02:56:06.764Z,72.10
2019-02-28T02:58:34.905Z,75.90
2019-02-28T03:01:03.076Z,74.93
2019-02-28T03:03:31.213Z,73.77
2019-02-28T03:05:59.356Z,82.30
2019-02-28T03:08:27.533Z,70.63
2019-02-28T03:10:55.683Z,74.83
2019-02-28T03:13:23.821Z,76.37
2019-02-28T03:15:51.991Z,74.97
2019-02-28T03:18:20.703Z,67.23
2019-02-28T03:20:49.916Z,70.80
2019-02-28T03:23:20.394Z,76.57
2019-02-28T03:25:48.833Z,73.83
2019-02-28T03:28:19.124Z,74.80
2019-02-28T03:30:47.321Z,77.67
2019-02-28T03:33:27.386Z,75.10
2019-02-28T03:35:45.441Z,78.63
2019-02-28T03:38:13.598Z,78.23
2019-02-28T03:40:41.889Z,76.20
2019-02-28T03:43:11.197Z,80.93
2019-02-28T03:45:39.352Z,76.67
2019-02-28T03:48:07.770Z,78.93
2019-02-28T03:50:35.901Z,72.10
2019-02-28T03:53:04.126Z,68.10
2019-02-28T03:55:40.324Z,81.03
2019-02-28T03:58:05.533Z,78.50
2019-02-28T04:00:34.235Z,75.17
2019-02-28T04:03:03.052Z,83.23
2019-02-28T04:05:31.213Z,79.97
2019-02-28T04:07:59.359Z,83.53
2019-02-28T04:10:27.497Z,76.83
2019-02-28T04:12:56.464Z,81.33
2019-02-28T04:15:24.636Z,88.73
2019-02-28T04:17:53.097Z,81.07
2019-02-28T04:20:21.489Z,81.07
2019-02-28T04:22:49.879Z,86.97
2019-02-28T04:25:22.947Z,82.03
2019-02-28T04:27:47.832Z,75.73
2019-02-28T04:30:16.125Z,80.90
2019-02-28T04:32:44.286Z,76.53
2019-02-28T04:35:12.444Z,77.97
2019-02-28T04:37:44.818Z,80.70
2019-02-28T04:40:11.166Z,75.27
2019-02-28T04:42:39.308Z,83.87
2019-02-28T04:45:09.165Z,74.17
2019-02-28T04:47:40.451Z,77.93
2019-02-28T04:50:08.059Z,69.80
2019-02-28T04:52:36.232Z,72.70
2019-02-28T04:55:05.144Z,71.77
2019-02-28T04:57:33.288Z,70.70
2019-02-28T05:00:01.469Z,74.10
2019-02-28T05:02:29.614Z,84.13
2019-02-28T05:04:59.384Z,85.55
2019-02-28T05:07:29.691Z,73.47
2019-02-28T05:09:57.340Z,77.03
2019-02-28T05:12:25.480Z,72.77
2019-02-28T05:14:55.289Z,80.03
2019-02-28T05:17:23.439Z,84.17
2019-02-28T05:19:51.700Z,77.63
2019-02-28T05:22:19.871Z,81.70
2019-02-28T05:24:48.008Z,75.53
2019-02-28T05:27:16.168Z,75.87
2019-02-28T05:29:44.838Z,79.60
2019-02-28T05:32:13.367Z,76.73
2019-02-28T05:34:41.508Z,74.57
2019-02-28T05:37:12.600Z,80.80
2019-02-28T05:39:39.766Z,77.90
2019-02-28T05:42:07.896Z,81.03
2019-02-28T05:44:37.492Z,78.80
2019-02-28T05:47:08.435Z,86.47
2019-02-28T05:49:36.587Z,84.33
2019-02-28T05:52:05.062Z,85.57
2019-02-28T05:54:34.812Z,82.17
2019-02-28T05:57:04.607Z,89.00
2019-02-28T05:59:32.783Z,84.00
2019-02-28T06:02:00.923Z,81.20
2019-02-28T06:04:29.060Z,82.07
2019-02-28T06:06:58.087Z,82.73
2019-02-28T06:09:26.224Z,81.93
2019-02-28T06:11:54.434Z,78.20
2019-02-28T06:14:26.640Z,84.17
2019-02-28T06:16:52.696Z,83.77
2019-02-28T06:19:22.013Z,80.47
2019-02-28T06:21:50.196Z,88.17
2019-02-28T06:24:18.341Z,85.63
2019-02-28T06:26:47.404Z,92.27
2019-02-28T06:29:15.575Z,87.33
2019-02-28T06:31:45.558Z,88.57
2019-02-28T06:34:13.612Z,84.20
2019-02-28T06:36:41.789Z,89.93
2019-02-28T06:39:10.034Z,75.17
2019-02-28T06:41:39.985Z,85.00
2019-02-28T06:44:08.236Z,90.47
2019-02-28T06:46:39.836Z,88.43
2019-02-28T06:49:08.201Z,80.97
2019-02-28T06:51:36.367Z,81.43
2019-02-28T06:54:07.901Z,101.03
2019-02-28T06:56:36.168Z,93.57
2019-02-28T06:59:04.905Z,98.03
2019-02-28T07:01:33.828Z,95.80
2019-02-28T07:04:01.960Z,99.27
2019-02-28T07:06:30.228Z,106.47
2019-02-28T07:09:01.889Z,107.87
2019-02-28T07:11:28.156Z,102.10
2019-02-28T07:13:56.330Z,109.20
2019-02-28T07:16:24.538Z,111.33
2019-02-28T07:18:53.786Z,115.10
2019-02-28T07:21:22.656Z,128.10
2019-02-28T07:23:51.005Z,116.03
2019-02-28T07:26:19.651Z,120.57
2019-02-28T07:28:48.124Z,124.43
2019-02-28T07:31:16.278Z,123.33
2019-02-28T07:33:45.250Z,123.60
2019-02-28T07:36:13.797Z,124.43
2019-02-28T07:38:41.934Z,124.90
2019-02-28T07:41:11.719Z,127.83
2019-02-28T07:43:40.186Z,134.97
2019-02-28T07:46:08.905Z,129.10
2019-02-28T07:48:37.208Z,130.63
2019-02-28T07:51:05.518Z,134.97
2019-02-28T07:53:33.654Z,132.30
2019-02-28T07:56:03.810Z,136.20
2019-02-28T07:58:33.410Z,132.70
2019-02-28T08:01:02.102Z,133.47
2019-02-28T08:03:30.231Z,141.27
2019-02-28T08:05:58.397Z,132.13
2019-02-28T08:08:27.963Z,139.93
2019-02-28T08:10:56.632Z,134.63
2019-02-28T08:13:24.821Z,134.00
2019-02-28T08:15:53.315Z,124.73
2019-02-28T08:18:22.755Z,125.77
2019-02-28T08:20:51.225Z,124.17
2019-02-28T08:23:19.368Z,129.40
2019-02-28T08:25:47.509Z,124.93
2019-02-28T08:28:15.691Z,122.77
2019-02-28T08:30:43.835Z,125.47
2019-02-28T08:33:12.068Z,132.67
2019-02-28T08:35:40.245Z,134.80
2019-02-28T08:38:10.067Z,129.70
2019-02-28T08:40:38.203Z,133.80
2019-02-28T08:43:06.416Z,142.97
2019-02-28T08:45:34.597Z,142.07
2019-02-28T08:48:02.774Z,134.13
2019-02-28T08:50:31.110Z,139.23
2019-02-28T08:53:00.516Z,143.00
2019-02-28T08:55:29.454Z,140.47
2019-02-28T08:58:04.483Z,137.27
2019-02-28T09:00:31.704Z,131.23
2019-02-28T09:02:57.473Z,141.83
2019-02-28T09:05:27.813Z,146.63
2019-02-28T09:07:55.399Z,139.13
2019-02-28T09:10:24.123Z,135.53
2019-02-28T09:12:52.297Z,135.60
2019-02-28T09:15:20.653Z,136.43
2019-02-28T09:17:48.792Z,128.97
2019-02-28T09:20:17.074Z,132.83
2019-02-28T09:22:45.213Z,135.33
2019-02-28T09:25:21.417Z,140.90
2019-02-28T09:27:46.981Z,140.00
2019-02-28T09:30:32.128Z,132.67
2019-02-28T09:33:00.299Z,139.13
2019-02-28T09:35:28.596Z,141.10
2019-02-28T09:37:56.720Z,140.10
2019-02-28T09:40:25.684Z,139.20
2019-02-28T09:42:54.699Z,135.20
2019-02-28T09:45:23.817Z,141.40
2019-02-28T09:47:51.995Z,146.17
2019-02-28T09:50:22.591Z,149.17
2019-02-28T09:52:50.798Z,139.87
2019-02-28T09:55:19.327Z,148.53
2019-02-28T09:57:53.848Z,138.33
2019-02-28T10:00:18.896Z,145.53
2019-02-28T10:02:47.248Z,135.37
2019-02-28T10:05:15.512Z,131.07
2019-02-28T10:07:43.660Z,134.90
2019-02-28T10:10:13.982Z,122.10
2019-02-28T10:12:43.083Z,120.40
2019-02-28T10:15:13.096Z,111.77
2019-02-28T10:17:42.283Z,106.83
2019-02-28T10:20:12.340Z,99.20
2019-02-28T10:22:40.488Z,108.30
2019-02-28T10:25:09.952Z,108.93
2019-02-28T10:27:38.095Z,100.67
2019-02-28T10:30:07.871Z,100.23
2019-02-28T10:32:36.059Z,97.87
2019-02-28T10:35:04.972Z,93.60
2019-02-28T10:37:33.116Z,90.97
2019-02-28T10:40:01.305Z,82.50
2019-02-28T10:42:29.451Z,87.80
2019-02-28T10:44:57.588Z,86.50
2019-02-28T10:47:29.389Z,73.87
2019-02-28T10:49:58.271Z,71.00
2019-02-28T10:52:30.471Z,66.40
2019-02-28T10:54:57.852Z,64.47
2019-02-28T10:57:28.655Z,65.87
2019-02-28T11:00:32.537Z,68.00
2019-02-28T11:02:30.716Z,68.57
2019-02-28T11:05:00.504Z,77.60
2019-02-28T11:07:37.620Z,77.33
2019-02-28T11:10:07.112Z,76.97
2019-02-28T11:12:35.334Z,80.90
2019-02-28T11:15:03.850Z,84.53
2019-02-28T11:17:34.177Z,92.57
2019-02-28T11:20:02.011Z,92.90
2019-02-28T11:22:31.611Z,106.00
2019-02-28T11:25:00.858Z,106.77
2019-02-28T11:27:29.640Z,113.23
2019-02-28T11:29:57.794Z,117.70
2019-02-28T11:32:26.450Z,120.30
2019-02-28T11:34:55.776Z,126.17
2019-02-28T11:37:23.917Z,120.50
2019-02-28T11:39:52.057Z,120.23
2019-02-28T11:42:20.288Z,127.40
2019-02-28T11:44:48.447Z,113.70
2019-02-28T11:47:16.586Z,118.40
2019-02-28T11:49:44.772Z,118.07
2019-02-28T11:52:12.936Z,115.43
2019-02-28T11:54:41.465Z,113.10
2019-02-28T11:57:10.308Z,110.30
2019-02-28T11:59:38.444Z,110.67
2019-02-28T12:02:06.596Z,116.03
2019-02-28T12:04:37.487Z,117.47
2019-02-28T12:07:04.767Z,113.70
2019-02-28T12:09:32.909Z,117.33
2019-02-28T12:12:01.088Z,103.57
2019-02-28T12:14:30.052Z,91.50
2019-02-28T12:16:58.391Z,89.50
2019-02-28T12:19:28.337Z,79.57
2019-02-28T12:21:56.344Z,84.13
2019-02-28T12:24:24.514Z,78.07
2019-02-28T12:26:53.684Z,65.87
2019-02-28T12:29:22.148Z,61.13
2019-02-28T12:31:50.264Z,60.33
2019-02-28T12:34:18.453Z,62.53
2019-02-28T12:36:49.368Z,62.33
2019-02-28T12:39:17.641Z,55.43
2019-02-28T12:41:45.816Z,54.80
2019-02-28T12:44:15.402Z,51.30
2019-02-28T12:46:43.745Z,50.33
2019-02-28T12:49:11.924Z,50.97
2019-02-28T12:51:42.157Z,44.20
2019-02-28T12:54:10.517Z,43.03
2019-02-28T12:56:40.333Z,40.47
2019-02-28T12:59:09.992Z,40.40
2019-02-28T13:01:38.272Z,34.37
2019-02-28T13:04:06.448Z,30.63
2019-02-28T13:06:34.589Z,34.13
2019-02-28T13:09:03.904Z,33.97
2019-02-28T13:11:32.139Z,32.30
2019-02-28T13:14:02.933Z,30.40
2019-02-28T13:16:30.389Z,28.73
2019-02-28T13:18:58.558Z,29.83
2019-02-28T13:21:26.696Z,21.33
2019-02-28T13:23:55.055Z,24.53
2019-02-28T13:26:24.705Z,23.27
2019-02-28T13:28:54.594Z,28.13
2019-02-28T13:31:25.513Z,20.97
2019-02-28T13:33:53.607Z,25.23
2019-02-28T13:36:22.780Z,21.10
2019-02-28T13:38:54.692Z,25.30
2019-02-28T13:41:26.705Z,25.40
2019-02-28T13:43:54.794Z,33.07
2019-02-28T13:46:24.048Z,25.57
2019-02-28T13:48:52.221Z,33.10
2019-02-28T13:51:20.361Z,38.53
2019-02-28T13:53:48.501Z,31.97
2019-02-28T13:56:18.065Z,27.73
2019-02-28T13:58:46.424Z,32.37
2019-02-28T14:01:14.648Z,32.97
2019-02-28T14:03:46.045Z,31.73
2019-02-28T14:06:18.956Z,37.50
2019-02-28T14:08:46.098Z,30.70
2019-02-28T14:11:12.711Z,27.03
2019-02-28T14:13:41.168Z,31.67
2019-02-28T14:16:09.480Z,32.60
2019-02-28T14:18:37.735Z,32.77
2019-02-28T14:21:05.828Z,36.47
2019-02-28T14:23:33.969Z,36.20
2019-02-28T14:26:02.228Z,30.93
2019-02-28T14:28:32.396Z,27.93
2019-02-28T14:31:00.376Z,29.57
2019-02-28T14:33:28.546Z,33.60
2019-02-28T14:35:56.688Z,28.47
2019-02-28T14:38:26.096Z,19.87
2019-02-28T14:40:54.492Z,27.70
2019-02-28T14:43:22.933Z,20.67
2019-02-28T14:45:51.147Z,42.13
2019-02-28T14:48:19.309Z,32.03
2019-02-28T14:50:50.549Z,25.73
2019-02-28T14:53:17.240Z,19.30
2019-02-28T14:55:45.406Z,24.13
2019-02-28T14:58:13.549Z,31.80
2019-02-28T15:00:42.425Z,30.73
2019-02-28T15:03:14.783Z,34.93
2019-02-28T15:05:43.628Z,29.47
2019-02-28T15:08:14.850Z,35.37
2019-02-28T15:10:42.468Z,26.93
2019-02-28T15:13:11.680Z,27.13
2019-02-28T15:15:40.060Z,28.43
2019-02-28T15:18:10.895Z,29.80
2019-02-28T15:20:38.042Z,25.23
2019-02-28T15:23:06.177Z,26.87
2019-02-28T15:25:34.358Z,29.27
2019-02-28T15:28:04.430Z,25.77
2019-02-28T15:30:36.733Z,23.33
2019-02-28T15:33:07.451Z,25.23
2019-02-28T15:35:35.605Z,26.77
2019-02-28T15:38:05.678Z,30.83
2019-02-28T15:40:51.951Z,33.73
2019-02-28T15:43:20.120Z,30.10
2019-02-28T15:45:48.289Z,29.47
2019-02-28T15:48:16.428Z,31.27
2019-02-28T15:50:44.562Z,22.83
2019-02-28T15:53:15.132Z,36.30
2019-02-28T15:55:42.517Z,25.97
2019-02-28T15:58:11.688Z,21.03
2019-02-28T16:00:42.405Z,31.77
2019-02-28T16:03:13.436Z,33.40
2019-02-28T16:05:44.132Z,32.90
2019-02-28T16:08:12.697Z,26.60
2019-02-28T16:10:52.620Z,35.87
2019-02-28T16:13:12.820Z,20.70
2019-02-28T16:15:43.247Z,26.83
2019-02-28T16:18:12.074Z,30.80
2019-02-28T16:20:40.704Z,35.50
2019-02-28T16:23:08.872Z,33.27
2019-02-28T16:25:37.584Z,32.00
2019-02-28T16:28:08.901Z,28.57
2019-02-28T16:30:38.072Z,31.70
2019-02-28T16:33:06.328Z,33.63
2019-02-28T16:35:34.476Z,25.57
2019-02-28T16:38:02.784Z,25.93
2019-02-28T16:40:31.490Z,27.00
2019-02-28T16:42:59.722Z,27.07
2019-02-28T16:45:32.696Z,36.43
2019-02-28T16:48:02.986Z,38.13
2019-02-28T16:50:31.236Z,33.47
2019-02-28T16:52:59.720Z,29.23
2019-02-28T16:55:31.023Z,36.80
2019-02-28T16:57:57.741Z,25.10
2019-02-28T17:00:26.088Z,31.43
2019-02-28T17:02:54.433Z,27.43
2019-02-28T17:05:26.603Z,31.00
2019-02-28T17:07:52.400Z,31.00
2019-02-28T17:10:24.892Z,30.10
2019-02-28T17:13:03.003Z,21.43
2019-02-28T17:15:35.224Z,24.03
2019-02-28T17:18:21.399Z,30.07
2019-02-28T17:20:49.866Z,23.17
2019-02-28T17:23:18.727Z,25.97
2019-02-28T17:25:48.568Z,20.23
2019-02-28T17:28:34.712Z,20.33
2019-02-28T17:31:20.874Z,23.77
2019-02-28T17:33:52.112Z,27.50
2019-02-28T17:36:20.596Z,22.87
2019-02-28T17:38:57.793Z,15.93
2019-02-28T17:41:26.157Z,21.60
2019-02-28T17:44:13.332Z,15.23
2019-02-28T17:46:46.516Z,16.33
2019-02-28T17:49:23.319Z,16.57
2019-02-28T17:51:57.381Z,11.67
2019-02-28T17:54:31.908Z,17.70
2019-02-28T17:57:06.264Z,12.57
2019-02-28T17:59:38.733Z,19.60
2019-02-28T18:02:07.545Z,25.63
2019-02-28T18:04:56.092Z,17.63
2019-02-28T18:07:41.537Z,14.87
2019-02-28T18:10:29.881Z,22.57
2019-02-28T18:13:11.636Z,25.83
2019-02-28T18:15:47.141Z,28.70
2019-02-28T18:18:26.766Z,31.67
2019-02-28T18:21:17.336Z,23.23
2019-02-28T18:23:47.376Z,21.80
2019-02-28T18:26:17.156Z,24.57
2019-02-28T18:28:50.277Z,25.47
2019-02-28T18:31:19.099Z,21.93
2019-02-28T18:33:49.715Z,20.00
2019-02-28T18:36:19.584Z,25.37
2019-02-28T18:38:47.716Z,24.50
2019-02-28T18:41:16.117Z,25.03
2019-02-28T18:43:44.365Z,35.80
2019-02-28T18:46:12.805Z,42.63
2019-02-28T18:48:40.965Z,35.77
2019-02-28T18:51:09.128Z,34.13
2019-02-28T18:53:37.425Z,33.73
2019-02-28T18:56:06.067Z,32.87
2019-02-28T18:58:39.940Z,43.23
2019-02-28T19:01:11.091Z,33.67
2019-02-28T19:03:42.123Z,26.80
2019-02-28T19:06:10.260Z,36.27
2019-02-28T19:09:05.203Z,31.13
2019-02-28T19:11:46.413Z,40.57
2019-02-28T19:14:19.455Z,36.93
2019-02-28T19:17:02.068Z,31.10
2019-02-28T19:22:17.925Z,39.73
2019-02-28T19:24:47.391Z,36.80
2019-02-28T19:27:15.587Z,40.73
2019-02-28T19:29:49.626Z,35.53
2019-02-28T19:32:16.110Z,40.83
2019-02-28T19:34:55.104Z,42.90
2019-02-28T19:37:24.339Z,40.43
2019-02-28T19:39:52.483Z,47.53
2019-02-28T19:42:24.139Z,35.43
2019-02-28T19:45:01.285Z,40.80
2019-02-28T19:47:34.669Z,44.17
2019-02-28T19:50:12.044Z,40.80
2019-02-28T19:52:43.325Z,38.27
2019-02-28T19:55:14.819Z,42.37
2019-02-28T19:57:42.971Z,45.33
2019-02-28T20:00:12.741Z,43.13
2019-02-28T20:02:40.914Z,46.80
2019-02-28T20:05:10.501Z,34.37
2019-02-28T20:07:38.656Z,48.53
2019-02-28T20:10:11.438Z,38.50
2019-02-28T20:12:39.608Z,37.20
2019-02-28T20:15:12.002Z,39.83
2019-02-28T20:17:39.891Z,32.83
2019-02-28T20:20:12.656Z,36.23
2019-02-28T20:22:42.725Z,42.03
2019-02-28T20:25:11.743Z,46.03
2019-02-28T20:27:39.884Z,36.73
2019-02-28T20:30:12.335Z,44.03
2019-02-28T20:32:42.163Z,31.90
2019-02-28T20:35:10.478Z,33.70
2019-02-28T20:37:39.254Z,38.70
2019-02-28T20:40:11.788Z,30.97
2019-02-28T20:42:40.013Z,36.20
2019-02-28T20:45:09.229Z,34.43
2019-02-28T20:47:37.422Z,39.57
2019-02-28T20:50:07.184Z,30.40
2019-02-28T20:52:35.325Z,34.37
2019-02-28T20:55:03.869Z,35.13
2019-02-28T20:57:32.012Z,38.30
2019-02-28T21:00:01.323Z,37.30
2019-02-28T21:02:29.709Z,40.03
2019-02-28T21:04:57.832Z,36.07
2019-02-28T21:07:25.975Z,35.50
2019-02-28T21:09:54.197Z,36.43
2019-02-28T21:12:22.344Z,40.37
2019-02-28T21:14:50.478Z,35.13
2019-02-28T21:17:18.757Z,37.33
2019-02-28T21:19:46.898Z,36.53
2019-02-28T21:22:15.037Z,38.07
2019-02-28T21:24:43.220Z,35.63
2019-02-28T21:27:11.344Z,37.07
2019-02-28T21:29:39.480Z,32.40
2019-02-28T21:32:07.649Z,38.03
2019-02-28T21:34:36.248Z,40.27
2019-02-28T21:37:04.389Z,33.17
2019-02-28T21:39:32.632Z,30.57
2019-02-28T21:42:00.983Z,30.47
2019-02-28T21:44:29.124Z,40.10
2019-02-28T21:46:57.294Z,36.13
2019-02-28T21:49:25.436Z,44.20
2019-02-28T21:51:53.590Z,35.30
2019-02-28T21:54:21.756Z,28.73
2019-02-28T21:56:49.892Z,37.80
2019-02-28T21:59:18.037Z,30.37
2019-02-28T22:01:46.205Z,42.57
2019-02-28T22:04:14.344Z,33.47
2019-02-28T22:06:42.486Z,31.73
2019-02-28T22:09:10.753Z,29.37
2019-02-28T22:11:38.861Z,35.00
2019-02-28T22:14:06.998Z,36.33
2019-02-28T22:16:35.188Z,34.30
2019-02-28T22:19:03.376Z,36.53
2019-02-28T22:21:31.517Z,30.37
2019-02-28T22:23:59.725Z,39.97
2019-02-28T22:26:28.117Z,33.43
2019-02-28T22:28:56.256Z,46.67
2019-02-28T22:31:26.236Z,40.77
2019-02-28T22:34:05.107Z,33.30
2019-02-28T22:36:34.923Z,40.43
2019-02-28T22:39:03.835Z,35.60
2019-02-28T22:41:31.981Z,37.53
2019-02-28T22:44:00.147Z,35.17
2019-02-28T22:46:28.286Z,28.00
2019-02-28T22:48:56.744Z,29.43
2019-02-28T22:51:24.944Z,24.63
2019-02-28T22:53:53.089Z,23.87
2019-02-28T22:56:21.344Z,26.47
2019-02-28T22:58:49.528Z,31.07
2019-02-28T23:01:22.300Z,31.17
2019-02-28T23:03:50.437Z,31.50
2019-02-28T23:06:18.628Z,32.03
2019-02-28T23:08:46.774Z,35.63
2019-02-28T23:11:14.916Z,44.50
2019-02-28T23:13:43.082Z,44.40
2019-02-28T23:16:11.218Z,51.27
2019-02-28T23:18:39.514Z,60.37
2019-02-28T23:21:07.680Z,57.67
2019-02-28T23:23:35.823Z,58.80
2019-02-28T23:26:06.381Z,66.67
2019-02-28T23:28:36.240Z,69.57
2019-02-28T23:31:22.804Z,77.73
2019-02-28T23:33:51.140Z,85.30
2019-02-28T23:36:19.287Z,88.03
2019-02-28T23:38:47.690Z,103.50
2019-02-28T23:41:15.924Z,108.93
2019-02-28T23:43:44.069Z,108.10
2019-02-28T23:46:12.223Z,116.47
2019-02-28T23:48:42.330Z,110.47
2019-02-28T23:51:10.185Z,118.27
2019-02-28T23:53:38.328Z,116.10
2019-02-28T23:56:06.812Z,113.40
2019-02-28T23:58:34.954Z,105.87
